METAR Data
IDs: Format: Raw Decoded Include TAF

Data at: 1057 UTC 15 Dec 2018

PARS 151056Z AUTO 00000KT 9SM -SN OVC040 M18/M20 A2952 RMK AO2 SLP999 P0000 T11831200 FZRANO $
PARS 150956Z AUTO 00000KT 9SM -SN SCT024 OVC038 M18/M20 A2950 RMK AO2 SLP996 P0000 T11831200 FZRANO $
PARS 150928Z AUTO 00000KT 9SM -SN BKN024 OVC036 M18/M20 A2949 RMK AO2 P0000 FZRANO $
PARS 150918Z AUTO 00000KT 9SM -SN SCT024 OVC036 M18/M20 A2949 RMK AO2 P0000 FZRANO $
PARS 150908Z AUTO 00000KT 9SM -SN BKN024 OVC036 M18/M20 A2949 RMK AO2 P0000 FZRANO $
PARS 150856Z AUTO 00000KT 9SM -SN SCT024 OVC038 M18/M20 A2948 RMK AO2 SLP988 P0000 60000 T11831200 53018 FZRANO $
PARS 150756Z AUTO 26003KT 9SM -SN OVC036 M18/M20 A2946 RMK AO2 SLP982 P0000 T11831200 411831311 FZRANO $
PARS 150656Z AUTO 00000KT 9SM -SN OVC034 M18/M21 A2944 RMK AO2 SLP975 P0000 T11831206 FZRANO $
PARS 150556Z AUTO 00000KT 9SM -SN OVC032 M19/M21 A2943 RMK AO2 SLP970 P0000 60000 T11891206 11189 21211 53013 FZRANO $
PARS 150456Z AUTO 00000KT 9SM -SN OVC032 M19/M21 A2942 RMK AO2 SLP966 P0000 T11891206 FZRANO $
PARS 150406Z AUTO 00000KT 9SM -SN FEW019 OVC030 M19/M21 A2941 RMK AO2 P0000 FZRANO $
PARS 150356Z AUTO 00000KT 9SM -SN SCT019 OVC028 M19/M21 A2940 RMK AO2 SLP962 P0000 T11941211 FZRANO $
PARS 150256Z AUTO 00000KT 9SM -SN FEW015 OVC029 M19/M22 A2939 RMK AO2 SLP957 P0000 60000 T11941217 53005 FZRANO $
PARS 150246Z AUTO 23003KT 9SM -SN SCT015 OVC029 M19/M22 A2939 RMK AO2 P0000 FZRANO $
PARS 150204Z AUTO 25003KT 9SM -SN BKN013 OVC030 M20/M22 A2938 RMK AO2 P0000 FZRANO $
PARS 150156Z AUTO 00000KT 9SM -SN SCT013 OVC032 M20/M22 A2938 RMK AO2 SNB03 SLP954 P0000 T12001222 FZRANO $
PARS 150056Z AUTO 25004KT 9SM OVC034 M21/M23 A2937 RMK AO2 SNB16E54 SLP951 P0000 T12061228 FZRANO $
PARS 142356Z AUTO 00000KT 10SM OVC032 M21/M23 A2938 RMK AO2 SLP952 60000 T12111233 11211 21289 58001 FZRANO $
PARS 142256Z AUTO 25004KT 10SM OVC030 M23/M25 A2938 RMK AO2 SLP953 T12281250 FZRANO $
PARS 142207Z AUTO 25003KT 10SM SCT024 OVC032 M23/M26 A2938 RMK AO2 FZRANO $
PARS 142156Z AUTO 00000KT 9SM BKN024 OVC036 M23/M25 A2938 RMK AO2 SNB43E53 SLP954 P0000 T12281250 FZRANO $
PARS 142056Z AUTO 00000KT 10SM OVC026 M25/M27 A2938 RMK AO2 SNB06E16 SLP953 P0000 60000 T12501272 53009 FZRANO $
PARS 141956Z AUTO 00000KT 10SM OVC028 M27/M29 A2937 RMK AO2 SNE45 SLP949 P0000 T12671294 FZRANO $
PARS 141856Z AUTO 00000KT 10SM -SN OVC028 M28/M31 A2935 RMK AO2 SNB56 SLP945 P0000 T12831311 FZRANO $
PARS 141756Z AUTO 00000KT 8SM BKN028 M29/M32 A2935 RMK AO2 SNB35E49 SLP944 P0000 60000 T12891317 11289 21311 53001 FZRANO $
PARS 141752Z AUTO 00000KT 8SM BKN028 M29/M32 A2935 RMK AO2 SNB35E49 P0000 FZRANO $
PARS 141656Z AUTO 00000KT 10SM OVC030 M30/M32 A2935 RMK AO2 SLP942 T13001322 FZRANO $
PARS 141556Z AUTO 00000KT 10SM FEW090 M31/M33 A2935 RMK AO2 SLP943 T13061328 FZRANO $
PARS 141456Z AUTO 00000KT 6SM HZ SCT002 M31/M34 A2935 RMK AO2 SLP944 T13111339 56001 FZRANO $
PARS 141356Z AUTO 00000KT 10SM CLR M31/M33 A2935 RMK AO2 SLP944 T13061333 FZRANO $
PARS 141256Z AUTO 24003KT 10SM CLR M31/M33 A2936 RMK AO2 SLP945 T13061333 FZRANO $
PARS 141156Z AUTO 00000KT 10SM CLR M31/M33 A2936 RMK AO2 SLP947 T13061333 11278 21306 58000 FZRANO $
PARS 141056Z AUTO 00000KT 10SM CLR M29/M32 A2937 RMK AO2 SLP949 T12941322 FZRANO $
PARS 140956Z AUTO 26003KT 10SM CLR M29/M32 A2936 RMK AO2 SLP948 T12941317 FZRANO $
PARS 140856Z AUTO 26003KT 10SM FEW002 M29/M32 A2936 RMK AO2 SLP947 T12941322 56003 FZRANO $
PARS 140830Z AUTO 00000KT 10SM SCT002 M29/M32 A2936 RMK AO2 FZRANO $
PARS 140756Z AUTO 00000KT 10SM CLR M29/M32 A2936 RMK AO2 SLP947 T12941322 411781294 FZRANO $
PARS 140656Z AUTO 26003KT 10SM SCT001 M28/M31 A2936 RMK AO2 SLP948 T12831311 FZRANO $
PARS 140648Z AUTO 25005KT 10SM BKN001 M28/M31 A2936 RMK AO2 FZRANO $
PARS 140640Z AUTO 00000KT 2SM HZ BKN001 M28/M31 A2936 RMK AO2 FZRANO $
PARS 140632Z AUTO 00000KT 1SM HZ VV001 M28/M31 A2936 RMK AO2 FZRANO RVRNO $
PARS 140628Z AUTO 00000KT 2SM BR FEW002 M28/M31 A2936 RMK AO2 FZRANO $
PARS 140556Z AUTO 25003KT 10SM CLR M28/M31 A2937 RMK AO2 SLP950 T12831306 11183 21283 58001 FZRANO $
PARS 140456Z AUTO 00000KT 10SM CLR M27/M29 A2937 RMK AO2 SLP950 T12721294 FZRANO $
PARS 140356Z AUTO 00000KT 10SM CLR M26/M29 A2938 RMK AO2 SLP952 T12611289 FZRANO $
PARS 140256Z AUTO 25004KT 10SM CLR M25/M27 A2937 RMK AO2 SLP951 T12501272 52001 FZRANO $
PARS 140156Z AUTO 00000KT 9SM CLR M24/M27 A2937 RMK AO2 SLP951 T12441272 FZRANO $
PARS 140056Z AUTO 00000KT 10SM CLR M22/M25 A2937 RMK AO2 SLP950 T12221250 FZRANO $
PARS 132356Z AUTO 00000KT 10SM CLR M19/M21 A2937 RMK AO2 SLP950 60000 T11891206 11178 21211 56001 FZRANO $